Capitol Logistics 7325

Operating for MZN



KBWI
Baltimore/Washington International Thurgood Marshall Airport
Baltimore, Maryland
KSBD
San Bernardino International Airport
San Bernardino, California

Activity Log

Date Flight Route Aircraft Duration
No Flights Yet

Route Details

Aircraft Information
Primary: Boeing 767-300BDSF
Backup: Boeing 757-200SF
Route Data
Distance: 1966nm
Duration: 5h 45m
Recm'd Route: TERPZ7 MCRAY J518 IHD J518 KOZAR J518 DJB J60 JOT J60 IOW J10 OBH J84 EKR J156 ILC J80 OAL CANDA TTE ZIGGY7
Origin Wx: KBWI 141954Z 15004KT 2SM -RA BR FEW025 BKN055 OVC080 15/13 A2998 RMK AO2 SFC VIS 5 SLP150 P0003 T01500128
Dest. Wx: KSBD 141950Z 29004KT 7SM BKN043 19/04 A2998
Notes: